sensor_id;sensor_type;location;lat;lon;timestamp;pressure;altitude;pressure_sealevel;temperature;humidity
21431;BME280;10876;49.038;10.608;2023-02-19T00:02:16;98788.25;;;8.89;100.00
21431;BME280;10876;49.038;10.608;2023-02-19T00:04:43;98783.84;;;8.93;100.00
21431;BME280;10876;49.038;10.608;2023-02-19T00:07:10;98779.47;;;8.92;100.00
21431;BME280;10876;49.038;10.608;2023-02-19T00:09:37;98783.00;;;8.92;100.00
21431;BME280;10876;49.038;10.608;2023-02-19T00:12:04;98777.31;;;8.89;100.00
21431;BME280;10876;49.038;10.608;2023-02-19T00:14:33;98776.94;;;8.95;100.00
21431;BME280;10876;49.038;10.608;2023-02-19T00:17:00;98775.63;;;8.93;100.00
21431;BME280;10876;49.038;10.608;2023-02-19T00:19:27;98762.53;;;8.90;100.00
21431;BME280;10876;49.038;10.608;2023-02-19T00:21:54;98754.34;;;8.90;100.00
21431;BME280;10876;49.038;10.608;2023-02-19T00:24:21;98755.69;;;8.92;100.00
21431;BME280;10876;49.038;10.608;2023-02-19T00:26:48;98749.22;;;8.88;100.00
21431;BME280;10876;49.038;10.608;2023-02-19T00:29:17;98753.25;;;8.91;100.00
21431;BME280;10876;49.038;10.608;2023-02-19T00:31:46;98752.22;;;8.87;100.00
21431;BME280;10876;49.038;10.608;2023-02-19T00:34:13;98747.59;;;8.87;100.00
21431;BME280;10876;49.038;10.608;2023-02-19T00:36:41;98752.03;;;8.83;100.00
21431;BME280;10876;49.038;10.608;2023-02-19T00:39:11;98753.06;;;8.87;100.00
21431;BME280;10876;49.038;10.608;2023-02-19T00:41:39;98750.59;;;8.86;100.00
21431;BME280;10876;49.038;10.608;2023-02-19T00:44:07;98744.34;;;8.85;100.00
21431;BME280;10876;49.038;10.608;2023-02-19T00:46:38;98738.06;;;8.85;100.00
21431;BME280;10876;49.038;10.608;2023-02-19T00:49:08;98745.16;;;8.86;100.00
21431;BME280;10876;49.038;10.608;2023-02-19T00:51:38;98738.38;;;8.83;100.00
21431;BME280;10876;49.038;10.608;2023-02-19T00:54:05;98735.09;;;8.81;100.00
21431;BME280;10876;49.038;10.608;2023-02-19T00:56:33;98734.63;;;8.79;100.00
21431;BME280;10876;49.038;10.608;2023-02-19T00:59:00;98730.16;;;8.83;100.00
21431;BME280;10876;49.038;10.608;2023-02-19T01:01:27;98733.41;;;8.85;100.00
21431;BME280;10876;49.038;10.608;2023-02-19T01:03:54;98729.66;;;8.81;100.00
21431;BME280;10876;49.038;10.608;2023-02-19T01:06:22;98719.84;;;8.80;100.00
21431;BME280;10876;49.038;10.608;2023-02-19T01:08:49;98715.19;;;8.80;100.00
21431;BME280;10876;49.038;10.608;2023-02-19T01:11:17;98715.19;;;8.80;100.00
21431;BME280;10876;49.038;10.608;2023-02-19T01:13:44;98709.94;;;8.84;100.00
21431;BME280;10876;49.038;10.608;2023-02-19T01:16:14;98713.78;;;8.83;100.00
21431;BME280;10876;49.038;10.608;2023-02-19T01:18:41;98713.19;;;8.86;100.00
21431;BME280;10876;49.038;10.608;2023-02-19T01:21:12;98701.25;;;8.82;100.00
21431;BME280;10876;49.038;10.608;2023-02-19T01:23:40;98697.41;;;8.83;100.00
21431;BME280;10876;49.038;10.608;2023-02-19T01:26:11;98663.00;;;8.82;100.00
21431;BME280;10876;49.038;10.608;2023-02-19T01:28:38;98665.66;;;8.87;100.00
21431;BME280;10876;49.038;10.608;2023-02-19T01:31:08;98660.19;;;8.87;100.00
21431;BME280;10876;49.038;10.608;2023-02-19T01:33:36;98653.09;;;8.86;100.00
21431;BME280;10876;49.038;10.608;2023-02-19T01:36:04;98619.53;;;8.86;100.00
21431;BME280;10876;49.038;10.608;2023-02-19T01:38:31;98617.31;;;8.88;100.00
21431;BME280;10876;49.038;10.608;2023-02-19T01:41:06;98598.91;;;8.93;100.00
21431;BME280;10876;49.038;10.608;2023-02-19T01:43:52;98630.56;;;8.94;100.00
21431;BME280;10876;49.038;10.608;2023-02-19T01:46:20;98639.56;;;8.95;100.00
21431;BME280;10876;49.038;10.608;2023-02-19T01:48:50;98627.22;;;8.97;100.00
21431;BME280;10876;49.038;10.608;2023-02-19T01:51:19;98617.91;;;8.98;100.00
21431;BME280;10876;49.038;10.608;2023-02-19T01:53:51;98621.22;;;8.95;100.00
21431;BME280;10876;49.038;10.608;2023-02-19T01:56:21;98613.03;;;8.95;100.00
21431;BME280;10876;49.038;10.608;2023-02-19T01:58:49;98598.28;;;8.96;100.00
21431;BME280;10876;49.038;10.608;2023-02-19T02:01:16;98592.31;;;8.94;100.00
21431;BME280;10876;49.038;10.608;2023-02-19T02:03:45;98592.03;;;8.96;100.00
21431;BME280;10876;49.038;10.608;2023-02-19T02:06:17;98605.38;;;8.97;100.00
21431;BME280;10876;49.038;10.608;2023-02-19T02:08:49;98605.44;;;8.92;100.00
21431;BME280;10876;49.038;10.608;2023-02-19T02:11:37;98602.63;;;8.97;100.00
21431;BME280;10876;49.038;10.608;2023-02-19T02:14:06;98601.91;;;8.92;100.00
21431;BME280;10876;49.038;10.608;2023-02-19T02:16:41;98610.91;;;8.92;100.00
21431;BME280;10876;49.038;10.608;2023-02-19T02:19:29;98603.56;;;8.93;100.00
21431;BME280;10876;49.038;10.608;2023-02-19T02:22:05;98597.06;;;8.89;100.00
21431;BME280;10876;49.038;10.608;2023-02-19T02:24:58;98600.69;;;8.84;100.00
21431;BME280;10876;49.038;10.608;2023-02-19T02:27:42;98596.66;;;8.82;100.00
21431;BME280;10876;49.038;10.608;2023-02-19T02:30:38;98586.63;;;8.77;100.00
21431;BME280;10876;49.038;10.608;2023-02-19T02:33:16;98587.25;;;8.74;100.00
21431;BME280;10876;49.038;10.608;2023-02-19T02:35:49;98581.78;;;8.74;100.00
21431;BME280;10876;49.038;10.608;2023-02-19T02:38:20;98590.97;;;8.78;100.00
21431;BME280;10876;49.038;10.608;2023-02-19T02:40:50;98598.69;;;8.76;100.00
21431;BME280;10876;49.038;10.608;2023-02-19T02:43:17;98594.91;;;8.72;100.00
21431;BME280;10876;49.038;10.608;2023-02-19T02:45:46;98601.41;;;8.76;100.00
21431;BME280;10876;49.038;10.608;2023-02-19T02:48:24;98598.69;;;8.76;100.00
21431;BME280;10876;49.038;10.608;2023-02-19T02:50:55;98594.53;;;8.78;100.00
21431;BME280;10876;49.038;10.608;2023-02-19T02:53:27;98603.13;;;8.72;100.00
21431;BME280;10876;49.038;10.608;2023-02-19T02:56:14;98609.19;;;8.69;100.00
21431;BME280;10876;49.038;10.608;2023-02-19T02:58:43;98609.69;;;8.71;100.00
21431;BME280;10876;49.038;10.608;2023-02-19T03:01:15;98601.09;;;8.77;100.00
21431;BME280;10876;49.038;10.608;2023-02-19T03:04:20;98609.19;;;8.69;100.00
21431;BME280;10876;49.038;10.608;2023-02-19T03:06:49;98624.97;;;8.72;100.00
21431;BME280;10876;49.038;10.608;2023-02-19T03:09:20;98634.06;;;8.67;100.00
21431;BME280;10876;49.038;10.608;2023-02-19T03:11:56;98634.88;;;8.68;100.00
21431;BME280;10876;49.038;10.608;2023-02-19T03:14:45;98651.53;;;8.66;100.00
21431;BME280;10876;49.038;10.608;2023-02-19T03:17:35;98646.41;;;8.65;100.00
21431;BME280;10876;49.038;10.608;2023-02-19T03:20:23;98656.78;;;8.63;100.00
21431;BME280;10876;49.038;10.608;2023-02-19T03:22:52;98655.69;;;8.64;100.00
21431;BME280;10876;49.038;10.608;2023-02-19T03:25:22;98647.19;;;8.65;100.00
21431;BME280;10876;49.038;10.608;2023-02-19T03:28:10;98664.19;;;8.62;100.00
21431;BME280;10876;49.038;10.608;2023-02-19T03:30:42;98661.75;;;8.61;100.00
21431;BME280;10876;49.038;10.608;2023-02-19T03:33:13;98668.84;;;8.62;100.00
21431;BME280;10876;49.038;10.608;2023-02-19T03:35:45;98669.19;;;8.55;100.00
21431;BME280;10876;49.038;10.608;2023-02-19T03:38:15;98679.09;;;8.51;100.00
21431;BME280;10876;49.038;10.608;2023-02-19T03:40:57;98680.44;;;8.53;100.00
21431;BME280;10876;49.038;10.608;2023-02-19T03:43:34;98675.34;;;8.47;100.00
21431;BME280;10876;49.038;10.608;2023-02-19T03:46:10;98677.78;;;8.48;100.00
21431;BME280;10876;49.038;10.608;2023-02-19T03:48:49;98667.97;;;8.47;100.00
21431;BME280;10876;49.038;10.608;2023-02-19T03:51:25;98673.44;;;8.47;100.00
21431;BME280;10876;49.038;10.608;2023-02-19T03:54:04;98679.09;;;8.51;100.00
21431;BME280;10876;49.038;10.608;2023-02-19T03:56:41;98681.31;;;8.49;100.00
21431;BME280;10876;49.038;10.608;2023-02-19T03:59:14;98673.44;;;8.47;100.00
21431;BME280;10876;49.038;10.608;2023-02-19T04:01:46;98678.66;;;8.44;100.00
21431;BME280;10876;49.038;10.608;2023-02-19T04:04:19;98684.97;;;8.44;100.00
21431;BME280;10876;49.038;10.608;2023-02-19T04:06:52;98689.81;;;8.47;100.00
21431;BME280;10876;49.038;10.608;2023-02-19T04:09:21;98677.34;;;8.41;100.00
21431;BME280;10876;49.038;10.608;2023-02-19T04:11:49;98672.41;;;8.43;100.00
21431;BME280;10876;49.038;10.608;2023-02-19T04:14:20;98680.06;;;8.41;100.00
21431;BME280;10876;49.038;10.608;2023-02-19T04:16:52;98678.66;;;8.44;100.00
21431;BME280;10876;49.038;10.608;2023-02-19T04:19:24;98677.66;;;8.40;100.00
21431;BME280;10876;49.038;10.608;2023-02-19T04:21:54;98671.38;;;8.39;100.00
21431;BME280;10876;49.038;10.608;2023-02-19T04:24:27;98685.53;;;8.41;100.00
21431;BME280;10876;49.038;10.608;2023-02-19T04:26:56;98696.00;;;8.34;100.00
21431;BME280;10876;49.038;10.608;2023-02-19T04:29:23;98686.09;;;8.38;100.00
21431;BME280;10876;49.038;10.608;2023-02-19T04:31:50;98679.03;;;8.37;100.00
21431;BME280;10876;49.038;10.608;2023-02-19T04:34:17;98685.66;;;8.31;100.00
21431;BME280;10876;49.038;10.608;2023-02-19T04:36:46;98681.81;;;8.32;100.00
21431;BME280;10876;49.038;10.608;2023-02-19T04:39:13;98684.06;;;8.30;100.00
21431;BME280;10876;49.038;10.608;2023-02-19T04:41:40;98699.38;;;8.26;100.00
21431;BME280;10876;49.038;10.608;2023-02-19T04:44:07;98693.94;;;8.26;100.00
21431;BME280;10876;49.038;10.608;2023-02-19T04:46:34;98665.03;;;8.25;100.00
21431;BME280;10876;49.038;10.608;2023-02-19T04:49:01;98651.88;;;8.27;100.00
21431;BME280;10876;49.038;10.608;2023-02-19T04:51:28;98640.47;;;8.25;100.00
21431;BME280;10876;49.038;10.608;2023-02-19T04:53:56;98611.34;;;8.20;100.00
21431;BME280;10876;49.038;10.608;2023-02-19T04:56:23;98593.66;;;8.18;100.00
21431;BME280;10876;49.038;10.608;2023-02-19T04:58:50;98590.44;;;8.16;100.00
21431;BME280;10876;49.038;10.608;2023-02-19T05:01:17;98587.34;;;8.03;100.00
21431;BME280;10876;49.038;10.608;2023-02-19T05:03:44;98573.41;;;8.05;100.00
21431;BME280;10876;49.038;10.608;2023-02-19T05:06:12;98576.94;;;8.05;100.00
21431;BME280;10876;49.038;10.608;2023-02-19T05:08:40;98568.31;;;7.98;100.00
21431;BME280;10876;49.038;10.608;2023-02-19T05:11:10;98567.75;;;8.01;100.00
21431;BME280;10876;49.038;10.608;2023-02-19T05:13:38;98560.66;;;8.00;100.00
21431;BME280;10876;49.038;10.608;2023-02-19T05:16:08;98543.50;;;8.00;100.00
21431;BME280;10876;49.038;10.608;2023-02-19T05:18:39;98555.22;;;8.00;100.00
21431;BME280;10876;49.038;10.608;2023-02-19T05:21:06;98535.59;;;7.98;100.00
21431;BME280;10876;49.038;10.608;2023-02-19T05:23:33;98536.66;;;8.02;100.00
21431;BME280;10876;49.038;10.608;2023-02-19T05:26:04;98537.75;;;8.01;100.00
21431;BME280;10876;49.038;10.608;2023-02-19T05:28:33;98540.50;;;8.01;100.00
21431;BME280;10876;49.038;10.608;2023-02-19T05:31:03;98529.56;;;8.01;100.00
21431;BME280;10876;49.038;10.608;2023-02-19T05:33:31;98521.41;;;8.01;100.00
21431;BME280;10876;49.038;10.608;2023-02-19T05:35:58;98512.63;;;8.04;100.00
21431;BME280;10876;49.038;10.608;2023-02-19T05:38:25;98519.16;;;8.03;100.00
21431;BME280;10876;49.038;10.608;2023-02-19T05:40:52;98522.41;;;8.05;100.00
21431;BME280;10876;49.038;10.608;2023-02-19T05:43:19;98517.56;;;8.02;100.00
21431;BME280;10876;49.038;10.608;2023-02-19T05:45:48;98509.38;;;8.02;100.00
21431;BME280;10876;49.038;10.608;2023-02-19T05:48:15;98508.31;;;7.98;100.00
21431;BME280;10876;49.038;10.608;2023-02-19T05:50:42;98511.06;;;7.98;100.00
21431;BME280;10876;49.038;10.608;2023-02-19T05:53:10;98511.38;;;7.97;100.00
21431;BME280;10876;49.038;10.608;2023-02-19T05:55:37;98510.06;;;7.94;100.00
21431;BME280;10876;49.038;10.608;2023-02-19T05:58:04;98514.09;;;7.97;100.00
21431;BME280;10876;49.038;10.608;2023-02-19T06:00:32;98512.78;;;7.94;100.00
21431;BME280;10876;49.038;10.608;2023-02-19T06:03:00;98501.88;;;7.94;100.00
21431;BME280;10876;49.038;10.608;2023-02-19T06:05:27;98514.97;;;7.92;100.00
21431;BME280;10876;49.038;10.608;2023-02-19T06:07:54;98515.59;;;7.89;100.00
21431;BME280;10876;49.038;10.608;2023-02-19T06:10:22;98525.28;;;7.95;100.00
21431;BME280;10876;49.038;10.608;2023-02-19T06:12:51;98528.13;;;7.90;100.00
21431;BME280;10876;49.038;10.608;2023-02-19T06:15:19;98523.69;;;7.94;100.00
21431;BME280;10876;49.038;10.608;2023-02-19T06:17:46;98523.47;;;7.90;100.00
21431;BME280;10876;49.038;10.608;2023-02-19T06:20:15;98519.84;;;7.95;100.00
21431;BME280;10876;49.038;10.608;2023-02-19T06:22:42;98524.88;;;7.88;100.00
21431;BME280;10876;49.038;10.608;2023-02-19T06:25:09;98526.50;;;7.89;100.00
21431;BME280;10876;49.038;10.608;2023-02-19T06:27:37;98532.47;;;7.91;100.00
21431;BME280;10876;49.038;10.608;2023-02-19T06:30:05;98518.31;;;7.89;100.00
21431;BME280;10876;49.038;10.608;2023-02-19T06:32:33;98525.41;;;7.90;100.00
21431;BME280;10876;49.038;10.608;2023-02-19T06:35:00;98525.41;;;7.90;100.00
21431;BME280;10876;49.038;10.608;2023-02-19T06:37:28;98534.59;;;7.94;100.00
21431;BME280;10876;49.038;10.608;2023-02-19T06:39:55;98529.75;;;7.91;100.00
21431;BME280;10876;49.038;10.608;2023-02-19T06:42:22;98526.94;;;7.96;100.00
21431;BME280;10876;49.038;10.608;2023-02-19T06:44:49;98494.81;;;7.93;100.00
21431;BME280;10876;49.038;10.608;2023-02-19T06:47:16;98489.84;;;7.95;100.00
21431;BME280;10876;49.038;10.608;2023-02-19T06:49:43;98506.00;;;7.92;100.00
21431;BME280;10876;49.038;10.608;2023-02-19T06:52:10;98506.31;;;7.90;100.00
21431;BME280;10876;49.038;10.608;2023-02-19T06:54:39;98495.41;;;7.90;100.00
21431;BME280;10876;49.038;10.608;2023-02-19T06:57:06;98512.84;;;7.89;100.00
21431;BME280;10876;49.038;10.608;2023-02-19T06:59:33;98517.81;;;7.87;100.00
21431;BME280;10876;49.038;10.608;2023-02-19T07:02:00;98518.81;;;7.91;100.00
21431;BME280;10876;49.038;10.608;2023-02-19T07:04:27;98520.44;;;7.92;100.00
21431;BME280;10876;49.038;10.608;2023-02-19T07:06:54;98528.84;;;7.96;100.00
21431;BME280;10876;49.038;10.608;2023-02-19T07:09:22;98526.94;;;7.96;100.00
21431;BME280;10876;49.038;10.608;2023-02-19T07:11:51;98541.06;;;7.98;100.00
21431;BME280;10876;49.038;10.608;2023-02-19T07:14:18;98530.88;;;8.04;100.00
21431;BME280;10876;49.038;10.608;2023-02-19T07:16:46;98529.56;;;8.01;100.00
21431;BME280;10876;49.038;10.608;2023-02-19T07:19:14;98535.03;;;8.01;100.00
21431;BME280;10876;49.038;10.608;2023-02-19T07:21:42;98526.34;;;7.99;100.00
21431;BME280;10876;49.038;10.608;2023-02-19T07:24:09;98525.22;;;8.00;100.00
21431;BME280;10876;49.038;10.608;2023-02-19T07:26:36;98531.78;;;7.99;100.00
21431;BME280;10876;49.038;10.608;2023-02-19T07:29:04;98540.56;;;7.96;100.00
21431;BME280;10876;49.038;10.608;2023-02-19T07:31:33;98545.72;;;7.98;100.00
21431;BME280;10876;49.038;10.608;2023-02-19T07:34:00;98552.56;;;7.95;100.00
21431;BME280;10876;49.038;10.608;2023-02-19T07:36:28;98560.25;;;7.93;100.00
21431;BME280;10876;49.038;10.608;2023-02-19T07:38:56;98563.56;;;7.90;100.00
21431;BME280;10876;49.038;10.608;2023-02-19T07:41:23;98577.81;;;7.87;100.00
21431;BME280;10876;49.038;10.608;2023-02-19T07:43:51;98572.91;;;7.84;100.00
21431;BME280;10876;49.038;10.608;2023-02-19T07:46:21;98566.91;;;7.87;100.00
21431;BME280;10876;49.038;10.608;2023-02-19T07:48:48;98578.38;;;7.84;100.00
21431;BME280;10876;49.038;10.608;2023-02-19T07:51:17;98578.88;;;7.86;100.00
21431;BME280;10876;49.038;10.608;2023-02-19T07:53:45;98582.81;;;7.80;100.00
21431;BME280;10876;49.038;10.608;2023-02-19T07:56:13;98579.47;;;7.83;100.00
21431;BME280;10876;49.038;10.608;2023-02-19T07:58:40;98582.22;;;7.83;100.00
21431;BME280;10876;49.038;10.608;2023-02-19T08:01:08;98594.97;;;7.87;100.00
21431;BME280;10876;49.038;10.608;2023-02-19T08:03:38;98596.66;;;7.83;100.00
21431;BME280;10876;49.038;10.608;2023-02-19T08:06:04;98610.53;;;7.87;100.00
21431;BME280;10876;49.038;10.608;2023-02-19T08:08:32;98614.13;;;7.82;100.00
21431;BME280;10876;49.038;10.608;2023-02-19T08:10:59;98630.75;;;7.81;100.00
21431;BME280;10876;49.038;10.608;2023-02-19T08:13:44;98634.09;;;7.78;100.00
21431;BME280;10876;49.038;10.608;2023-02-19T08:16:14;98644.50;;;7.76;100.00
21431;BME280;10876;49.038;10.608;2023-02-19T08:18:44;98651.94;;;7.70;100.00
21431;BME280;10876;49.038;10.608;2023-02-19T08:21:11;98658.34;;;7.79;100.00
21431;BME280;10876;49.038;10.608;2023-02-19T08:23:39;98646.63;;;7.79;100.00
21431;BME280;10876;49.038;10.608;2023-02-19T08:26:06;98645.44;;;7.85;100.00
21431;BME280;10876;49.038;10.608;2023-02-19T08:28:34;98655.69;;;7.93;100.00
21431;BME280;10876;49.038;10.608;2023-02-19T08:31:05;98652.59;;;8.00;100.00
21431;BME280;10876;49.038;10.608;2023-02-19T08:33:33;98645.28;;;7.95;100.00
21431;BME280;10876;49.038;10.608;2023-02-19T08:36:03;98648.06;;;8.09;100.00
21431;BME280;10876;49.038;10.608;2023-02-19T08:38:31;98650.88;;;8.23;100.00
21431;BME280;10876;49.038;10.608;2023-02-19T08:41:03;98649.09;;;8.32;100.00
21431;BME280;10876;49.038;10.608;2023-02-19T08:43:30;98648.47;;;8.35;100.00
21431;BME280;10876;49.038;10.608;2023-02-19T08:45:58;98653.75;;;8.50;100.00
21431;BME280;10876;49.038;10.608;2023-02-19T08:48:25;98640.34;;;8.68;100.00
21431;BME280;10876;49.038;10.608;2023-02-19T08:50:53;98645.59;;;8.64;100.00
21431;BME280;10876;49.038;10.608;2023-02-19T08:53:22;98645.03;;;8.48;100.00
21431;BME280;10876;49.038;10.608;2023-02-19T08:55:50;98651.50;;;8.52;100.00
21431;BME280;10876;49.038;10.608;2023-02-19T08:58:17;98645.97;;;8.57;100.00
21431;BME280;10876;49.038;10.608;2023-02-19T09:00:44;98646.16;;;8.61;100.00
21431;BME280;10876;49.038;10.608;2023-02-19T09:03:11;98653.06;;;8.59;100.00
21431;BME280;10876;49.038;10.608;2023-02-19T09:05:38;98646.16;;;8.61;100.00
21431;BME280;10876;49.038;10.608;2023-02-19T09:08:06;98652.22;;;8.58;100.00
21431;BME280;10876;49.038;10.608;2023-02-19T09:10:34;98651.22;;;8.54;100.00
21431;BME280;10876;49.038;10.608;2023-02-19T09:13:01;98657.91;;;8.62;100.00
21431;BME280;10876;49.038;10.608;2023-02-19T09:15:28;98669.00;;;8.51;100.00
21431;BME280;10876;49.038;10.608;2023-02-19T09:17:58;98662.34;;;8.57;100.00
21431;BME280;10876;49.038;10.608;2023-02-19T09:20:25;98665.50;;;8.65;100.00
21431;BME280;10876;49.038;10.608;2023-02-19T09:22:56;98670.84;;;8.70;100.00
21431;BME280;10876;49.038;10.608;2023-02-19T09:25:23;98678.91;;;8.61;100.00
21431;BME280;10876;49.038;10.608;2023-02-19T09:27:54;98699.59;;;8.67;100.00
21431;BME280;10876;49.038;10.608;2023-02-19T09:30:21;98703.88;;;8.54;100.00
21431;BME280;10876;49.038;10.608;2023-02-19T09:32:49;98709.28;;;8.60;100.00
21431;BME280;10876;49.038;10.608;2023-02-19T09:35:16;98720.19;;;8.60;100.00
21431;BME280;10876;49.038;10.608;2023-02-19T09:37:43;98720.19;;;8.60;100.00
21431;BME280;10876;49.038;10.608;2023-02-19T09:40:10;98739.22;;;8.65;100.00
21431;BME280;10876;49.038;10.608;2023-02-19T09:42:39;98747.91;;;8.67;100.00
21431;BME280;10876;49.038;10.608;2023-02-19T09:45:15;98755.38;;;8.61;100.00
21431;BME280;10876;49.038;10.608;2023-02-19T09:47:44;98760.00;;;8.61;100.00
21431;BME280;10876;49.038;10.608;2023-02-19T09:50:15;98778.09;;;8.56;100.00
21431;BME280;10876;49.038;10.608;2023-02-19T09:52:45;98769.91;;;8.56;100.00
21431;BME280;10876;49.038;10.608;2023-02-19T09:55:15;98788.66;;;8.63;100.00
21431;BME280;10876;49.038;10.608;2023-02-19T09:57:44;98780.91;;;8.51;100.00
21431;BME280;10876;49.038;10.608;2023-02-19T10:00:20;98789.91;;;8.52;100.00
21431;BME280;10876;49.038;10.608;2023-02-19T10:02:53;98791.81;;;8.51;100.00
21431;BME280;10876;49.038;10.608;2023-02-19T10:05:37;98797.06;;;8.48;100.00
21431;BME280;10876;49.038;10.608;2023-02-19T10:08:08;98799.59;;;8.44;100.00
21431;BME280;10876;49.038;10.608;2023-02-19T10:10:39;98801.00;;;8.42;100.00
21431;BME280;10876;49.038;10.608;2023-02-19T10:13:14;98800.47;;;8.40;100.00
21431;BME280;10876;49.038;10.608;2023-02-19T10:15:48;98801.03;;;8.37;100.00
21431;BME280;10876;49.038;10.608;2023-02-19T10:18:21;98795.84;;;8.35;100.00
21431;BME280;10876;49.038;10.608;2023-02-19T10:20:50;98801.09;;;8.31;100.00
21431;BME280;10876;49.038;10.608;2023-02-19T10:23:18;98805.66;;;8.36;100.00
21431;BME280;10876;49.038;10.608;2023-02-19T10:25:48;98807.84;;;8.39;100.00
21431;BME280;10876;49.038;10.608;2023-02-19T10:28:18;98808.41;;;8.36;100.00
21431;BME280;10876;49.038;10.608;2023-02-19T10:30:50;98806.16;;;8.38;100.00
21431;BME280;10876;49.038;10.608;2023-02-19T10:33:19;98810.81;;;8.38;100.00
21431;BME280;10876;49.038;10.608;2023-02-19T10:35:52;98816.28;;;8.38;100.00
21431;BME280;10876;49.038;10.608;2023-02-19T10:38:22;98793.53;;;8.47;100.00
21431;BME280;10876;49.038;10.608;2023-02-19T10:41:03;98778.63;;;8.59;100.00
21431;BME280;10876;49.038;10.608;2023-02-19T10:43:36;98776.06;;;8.81;100.00
21431;BME280;10876;49.038;10.608;2023-02-19T10:46:15;98805.97;;;8.91;100.00
21431;BME280;10876;49.038;10.608;2023-02-19T10:48:46;98814.16;;;8.91;100.00
21431;BME280;10876;49.038;10.608;2023-02-19T10:51:16;98825.50;;;8.98;100.00
21431;BME280;10876;49.038;10.608;2023-02-19T10:53:47;98823.09;;;8.97;100.00
21431;BME280;10876;49.038;10.608;2023-02-19T10:56:22;98831.06;;;8.93;100.00
21431;BME280;10876;49.038;10.608;2023-02-19T10:58:49;98832.63;;;8.99;100.00
21431;BME280;10876;49.038;10.608;2023-02-19T11:01:20;98826.28;;;8.85;100.00
21431;BME280;10876;49.038;10.608;2023-02-19T11:03:48;98819.19;;;8.84;100.00
21431;BME280;10876;49.038;10.608;2023-02-19T11:06:18;98819.19;;;8.84;100.00
21431;BME280;10876;49.038;10.608;2023-02-19T11:08:49;98816.16;;;8.86;100.00
21431;BME280;10876;49.038;10.608;2023-02-19T11:11:26;98806.44;;;8.79;100.00
21431;BME280;10876;49.038;10.608;2023-02-19T11:13:55;98817.34;;;8.79;100.00
21431;BME280;10876;49.038;10.608;2023-02-19T11:16:36;98813.50;;;8.80;100.00
21431;BME280;10876;49.038;10.608;2023-02-19T11:19:04;98812.09;;;8.83;100.00
21431;BME280;10876;49.038;10.608;2023-02-19T11:21:31;98820.44;;;8.92;100.00
21431;BME280;10876;49.038;10.608;2023-02-19T11:23:59;98806.69;;;8.97;100.00
21431;BME280;10876;49.038;10.608;2023-02-19T11:26:30;98815.69;;;8.97;100.00
21431;BME280;10876;49.038;10.608;2023-02-19T11:29:01;98817.22;;;9.03;100.00
21431;BME280;10876;49.038;10.608;2023-02-19T11:31:38;98801.28;;;9.11;100.00
21431;BME280;10876;49.038;10.608;2023-02-19T11:34:29;98801.28;;;9.11;100.00
21431;BME280;10876;49.038;10.608;2023-02-19T11:37:12;98812.63;;;9.18;100.00
21431;BME280;10876;49.038;10.608;2023-02-19T11:39:42;98815.06;;;9.19;100.00
21431;BME280;10876;49.038;10.608;2023-02-19T11:42:27;98809.13;;;9.31;100.00
21431;BME280;10876;49.038;10.608;2023-02-19T11:45:16;98800.16;;;9.44;100.00
21431;BME280;10876;49.038;10.608;2023-02-19T11:48:05;98816.22;;;9.32;100.00
21431;BME280;10876;49.038;10.608;2023-02-19T11:50:47;98829.59;;;9.34;100.00
21431;BME280;10876;49.038;10.608;2023-02-19T11:53:24;98842.00;;;9.26;100.00
21431;BME280;10876;49.038;10.608;2023-02-19T11:56:01;98846.41;;;9.41;100.00
21431;BME280;10876;49.038;10.608;2023-02-19T11:58:48;98861.47;;;9.38;100.00
21431;BME280;10876;49.038;10.608;2023-02-19T12:01:22;98875.53;;;9.32;100.00
21431;BME280;10876;49.038;10.608;2023-02-19T12:04:18;98889.13;;;9.18;100.00
21431;BME280;10876;49.038;10.608;2023-02-19T12:06:57;98919.78;;;9.15;100.00
21431;BME280;10876;49.038;10.608;2023-02-19T12:09:41;98907.78;;;9.16;100.00
21431;BME280;10876;49.038;10.608;2023-02-19T12:12:25;98914.19;;;9.06;100.00
21431;BME280;10876;49.038;10.608;2023-02-19T12:15:25;98922.31;;;8.92;100.00
21431;BME280;10876;49.038;10.608;2023-02-19T12:18:11;98931.69;;;8.86;100.00
21431;BME280;10876;49.038;10.608;2023-02-19T12:20:50;98932.97;;;8.70;100.00
21431;BME280;10876;49.038;10.608;2023-02-19T12:23:36;98929.16;;;8.71;100.00
21431;BME280;10876;49.038;10.608;2023-02-19T12:26:18;98915.63;;;8.61;100.00
21431;BME280;10876;49.038;10.608;2023-02-19T12:29:04;98918.25;;;8.47;100.00
21431;BME280;10876;49.038;10.608;2023-02-19T12:31:52;98906.84;;;8.64;100.00
21431;BME280;10876;49.038;10.608;2023-02-19T12:34:30;98908.34;;;8.75;100.00
21431;BME280;10876;49.038;10.608;2023-02-19T12:37:10;98900.09;;;8.80;100.00
21431;BME280;10876;49.038;10.608;2023-02-19T12:39:45;98898.47;;;8.79;100.00
21431;BME280;10876;49.038;10.608;2023-02-19T12:42:35;98899.19;;;8.66;100.00
21431;BME280;10876;49.038;10.608;2023-02-19T12:45:09;98901.91;;;8.66;100.00
21431;BME280;10876;49.038;10.608;2023-02-19T12:47:53;98898.59;;;8.69;100.00
21431;BME280;10876;49.038;10.608;2023-02-19T12:50:23;98902.94;;;8.70;100.00
21431;BME280;10876;49.038;10.608;2023-02-19T12:52:55;98899.66;;;8.73;100.00
21431;BME280;10876;49.038;10.608;2023-02-19T12:55:26;98901.06;;;8.70;100.00
21431;BME280;10876;49.038;10.608;2023-02-19T12:57:55;98895.59;;;8.70;100.00
21431;BME280;10876;49.038;10.608;2023-02-19T13:00:32;98895.09;;;8.87;100.00
21431;BME280;10876;49.038;10.608;2023-02-19T13:03:05;98888.44;;;8.93;100.00
21431;BME280;10876;49.038;10.608;2023-02-19T13:05:42;98887.50;;;9.36;100.00
21431;BME280;10876;49.038;10.608;2023-02-19T13:08:17;98879.88;;;9.33;100.00
21431;BME280;10876;49.038;10.608;2023-02-19T13:10:49;98879.06;;;9.32;100.00
21431;BME280;10876;49.038;10.608;2023-02-19T13:13:21;98892.41;;;9.53;100.00